sensor_id;sensor_type;location;lat;lon;timestamp;P1;durP1;ratioP1;P2;durP2;ratioP2
59338;SDS011;45117;50.960;5.500;2023-09-19T00:01:32;6.90;;;1.65;;
59338;SDS011;45117;50.960;5.500;2023-09-19T00:04:01;9.93;;;2.00;;
59338;SDS011;45117;50.960;5.500;2023-09-19T00:06:28;6.10;;;1.75;;
59338;SDS011;45117;50.960;5.500;2023-09-19T00:08:56;7.57;;;2.03;;
59338;SDS011;45117;50.960;5.500;2023-09-19T00:11:35;6.38;;;1.52;;
59338;SDS011;45117;50.960;5.500;2023-09-19T00:14:02;11.10;;;1.95;;
59338;SDS011;45117;50.960;5.500;2023-09-19T00:16:29;11.02;;;1.90;;
59338;SDS011;45117;50.960;5.500;2023-09-19T00:18:57;8.18;;;1.60;;
59338;SDS011;45117;50.960;5.500;2023-09-19T00:21:25;7.22;;;1.65;;
59338;SDS011;45117;50.960;5.500;2023-09-19T00:23:53;9.00;;;1.83;;
59338;SDS011;45117;50.960;5.500;2023-09-19T00:26:20;8.73;;;1.80;;
59338;SDS011;45117;50.960;5.500;2023-09-19T00:28:47;11.88;;;2.10;;
59338;SDS011;45117;50.960;5.500;2023-09-19T00:31:18;9.27;;;2.00;;
59338;SDS011;45117;50.960;5.500;2023-09-19T00:33:44;8.35;;;2.10;;
59338;SDS011;45117;50.960;5.500;2023-09-19T00:36:13;9.13;;;2.13;;
59338;SDS011;45117;50.960;5.500;2023-09-19T00:38:41;8.70;;;1.50;;
59338;SDS011;45117;50.960;5.500;2023-09-19T00:41:09;8.80;;;1.58;;
59338;SDS011;45117;50.960;5.500;2023-09-19T00:43:38;10.30;;;1.80;;
59338;SDS011;45117;50.960;5.500;2023-09-19T00:46:07;8.20;;;1.70;;
59338;SDS011;45117;50.960;5.500;2023-09-19T00:48:36;8.30;;;1.38;;
59338;SDS011;45117;50.960;5.500;2023-09-19T00:51:09;7.82;;;1.58;;
59338;SDS011;45117;50.960;5.500;2023-09-19T00:53:36;6.47;;;1.80;;
59338;SDS011;45117;50.960;5.500;2023-09-19T00:56:06;11.88;;;1.80;;
59338;SDS011;45117;50.960;5.500;2023-09-19T00:58:33;9.07;;;1.85;;
59338;SDS011;45117;50.960;5.500;2023-09-19T01:01:00;7.65;;;1.70;;
59338;SDS011;45117;50.960;5.500;2023-09-19T01:03:31;8.23;;;1.75;;
59338;SDS011;45117;50.960;5.500;2023-09-19T01:05:59;10.48;;;1.58;;
59338;SDS011;45117;50.960;5.500;2023-09-19T01:08:26;10.00;;;1.75;;
59338;SDS011;45117;50.960;5.500;2023-09-19T01:10:55;7.47;;;1.48;;
59338;SDS011;45117;50.960;5.500;2023-09-19T01:13:30;8.32;;;1.58;;
59338;SDS011;45117;50.960;5.500;2023-09-19T01:16:06;7.78;;;1.83;;
59338;SDS011;45117;50.960;5.500;2023-09-19T01:18:39;13.10;;;1.90;;
59338;SDS011;45117;50.960;5.500;2023-09-19T01:21:15;6.55;;;1.73;;
59338;SDS011;45117;50.960;5.500;2023-09-19T01:24:07;7.78;;;1.90;;
59338;SDS011;45117;50.960;5.500;2023-09-19T01:26:49;8.77;;;1.70;;
59338;SDS011;45117;50.960;5.500;2023-09-19T01:29:34;9.57;;;1.75;;
59338;SDS011;45117;50.960;5.500;2023-09-19T01:32:06;10.85;;;2.10;;
59338;SDS011;45117;50.960;5.500;2023-09-19T01:34:45;9.57;;;2.10;;
59338;SDS011;45117;50.960;5.500;2023-09-19T01:37:15;6.05;;;1.73;;
59338;SDS011;45117;50.960;5.500;2023-09-19T01:39:45;8.68;;;1.60;;
59338;SDS011;45117;50.960;5.500;2023-09-19T01:42:17;7.57;;;1.58;;
59338;SDS011;45117;50.960;5.500;2023-09-19T01:44:57;7.82;;;1.67;;
59338;SDS011;45117;50.960;5.500;2023-09-19T01:47:32;6.80;;;1.88;;
59338;SDS011;45117;50.960;5.500;2023-09-19T01:50:02;10.95;;;1.95;;
59338;SDS011;45117;50.960;5.500;2023-09-19T01:52:38;8.48;;;1.83;;
59338;SDS011;45117;50.960;5.500;2023-09-19T01:55:11;7.07;;;1.55;;
59338;SDS011;45117;50.960;5.500;2023-09-19T01:57:45;9.38;;;1.85;;
59338;SDS011;45117;50.960;5.500;2023-09-19T02:00:18;9.20;;;1.70;;
59338;SDS011;45117;50.960;5.500;2023-09-19T02:02:50;8.18;;;1.63;;
59338;SDS011;45117;50.960;5.500;2023-09-19T02:05:24;8.85;;;1.80;;
59338;SDS011;45117;50.960;5.500;2023-09-19T02:07:52;11.25;;;2.28;;
59338;SDS011;45117;50.960;5.500;2023-09-19T02:10:19;9.88;;;1.95;;
59338;SDS011;45117;50.960;5.500;2023-09-19T02:12:45;9.05;;;1.85;;
59338;SDS011;45117;50.960;5.500;2023-09-19T02:15:12;11.73;;;1.92;;
59338;SDS011;45117;50.960;5.500;2023-09-19T02:17:40;10.43;;;2.22;;
59338;SDS011;45117;50.960;5.500;2023-09-19T02:20:09;10.90;;;1.88;;
59338;SDS011;45117;50.960;5.500;2023-09-19T02:22:39;8.18;;;1.85;;
59338;SDS011;45117;50.960;5.500;2023-09-19T02:25:07;10.43;;;2.03;;
59338;SDS011;45117;50.960;5.500;2023-09-19T02:27:34;11.45;;;2.00;;
59338;SDS011;45117;50.960;5.500;2023-09-19T02:30:02;14.02;;;2.00;;
59338;SDS011;45117;50.960;5.500;2023-09-19T02:32:31;9.98;;;1.80;;
59338;SDS011;45117;50.960;5.500;2023-09-19T02:35:00;10.43;;;2.40;;
59338;SDS011;45117;50.960;5.500;2023-09-19T02:37:28;8.43;;;1.92;;
59338;SDS011;45117;50.960;5.500;2023-09-19T02:39:55;7.30;;;1.90;;
59338;SDS011;45117;50.960;5.500;2023-09-19T02:42:21;10.07;;;1.80;;
59338;SDS011;45117;50.960;5.500;2023-09-19T02:44:48;11.60;;;1.90;;
59338;SDS011;45117;50.960;5.500;2023-09-19T02:47:15;8.75;;;2.03;;
59338;SDS011;45117;50.960;5.500;2023-09-19T02:49:41;7.22;;;1.90;;
59338;SDS011;45117;50.960;5.500;2023-09-19T02:52:08;11.57;;;2.30;;
59338;SDS011;45117;50.960;5.500;2023-09-19T02:54:37;7.35;;;1.67;;
59338;SDS011;45117;50.960;5.500;2023-09-19T02:57:04;10.50;;;2.17;;
59338;SDS011;45117;50.960;5.500;2023-09-19T02:59:32;9.05;;;1.88;;
59338;SDS011;45117;50.960;5.500;2023-09-19T03:01:58;9.00;;;2.08;;
59338;SDS011;45117;50.960;5.500;2023-09-19T03:04:25;7.93;;;1.90;;
59338;SDS011;45117;50.960;5.500;2023-09-19T03:06:53;10.85;;;2.40;;
59338;SDS011;45117;50.960;5.500;2023-09-19T03:09:23;10.10;;;2.03;;
59338;SDS011;45117;50.960;5.500;2023-09-19T03:11:51;8.65;;;1.90;;
59338;SDS011;45117;50.960;5.500;2023-09-19T03:14:19;7.63;;;2.20;;
59338;SDS011;45117;50.960;5.500;2023-09-19T03:16:46;8.20;;;1.65;;
59338;SDS011;45117;50.960;5.500;2023-09-19T03:19:12;10.95;;;1.95;;
59338;SDS011;45117;50.960;5.500;2023-09-19T03:21:40;8.10;;;1.70;;
59338;SDS011;45117;50.960;5.500;2023-09-19T03:24:07;7.55;;;2.00;;
59338;SDS011;45117;50.960;5.500;2023-09-19T03:26:33;10.15;;;1.70;;
59338;SDS011;45117;50.960;5.500;2023-09-19T03:29:07;10.38;;;1.90;;
59338;SDS011;45117;50.960;5.500;2023-09-19T03:31:35;10.55;;;2.05;;
59338;SDS011;45117;50.960;5.500;2023-09-19T03:34:02;10.63;;;1.80;;
59338;SDS011;45117;50.960;5.500;2023-09-19T03:36:30;12.10;;;2.13;;
59338;SDS011;45117;50.960;5.500;2023-09-19T03:38:56;11.10;;;2.05;;
59338;SDS011;45117;50.960;5.500;2023-09-19T03:41:23;12.80;;;2.28;;
59338;SDS011;45117;50.960;5.500;2023-09-19T03:43:50;13.98;;;2.03;;
59338;SDS011;45117;50.960;5.500;2023-09-19T03:46:18;9.63;;;2.30;;
59338;SDS011;45117;50.960;5.500;2023-09-19T03:48:45;6.65;;;2.05;;
59338;SDS011;45117;50.960;5.500;2023-09-19T03:51:11;9.77;;;2.08;;
59338;SDS011;45117;50.960;5.500;2023-09-19T03:53:38;9.63;;;2.08;;
59338;SDS011;45117;50.960;5.500;2023-09-19T03:56:03;13.07;;;1.90;;
59338;SDS011;45117;50.960;5.500;2023-09-19T03:58:30;10.93;;;1.77;;
59338;SDS011;45117;50.960;5.500;2023-09-19T04:00:57;13.27;;;1.85;;
59338;SDS011;45117;50.960;5.500;2023-09-19T04:03:25;10.60;;;2.00;;
59338;SDS011;45117;50.960;5.500;2023-09-19T04:05:59;13.05;;;1.80;;
59338;SDS011;45117;50.960;5.500;2023-09-19T04:08:26;6.78;;;1.63;;
59338;SDS011;45117;50.960;5.500;2023-09-19T04:10:53;11.30;;;2.00;;
59338;SDS011;45117;50.960;5.500;2023-09-19T04:13:20;9.27;;;1.65;;
59338;SDS011;45117;50.960;5.500;2023-09-19T04:15:47;10.77;;;2.00;;
59338;SDS011;45117;50.960;5.500;2023-09-19T04:18:14;12.73;;;1.88;;
59338;SDS011;45117;50.960;5.500;2023-09-19T04:20:48;11.52;;;2.10;;
59338;SDS011;45117;50.960;5.500;2023-09-19T04:23:15;7.88;;;1.67;;
59338;SDS011;45117;50.960;5.500;2023-09-19T04:25:43;8.15;;;1.80;;
59338;SDS011;45117;50.960;5.500;2023-09-19T04:28:10;6.47;;;1.90;;
59338;SDS011;45117;50.960;5.500;2023-09-19T04:30:36;5.32;;;1.67;;
59338;SDS011;45117;50.960;5.500;2023-09-19T04:33:05;14.02;;;2.00;;
59338;SDS011;45117;50.960;5.500;2023-09-19T04:35:32;5.68;;;1.67;;
59338;SDS011;45117;50.960;5.500;2023-09-19T04:38:01;8.60;;;1.80;;
59338;SDS011;45117;50.960;5.500;2023-09-19T04:40:28;8.77;;;1.60;;
59338;SDS011;45117;50.960;5.500;2023-09-19T04:42:55;9.38;;;1.88;;
59338;SDS011;45117;50.960;5.500;2023-09-19T04:45:22;10.23;;;1.95;;
59338;SDS011;45117;50.960;5.500;2023-09-19T04:47:49;11.23;;;2.13;;
59338;SDS011;45117;50.960;5.500;2023-09-19T04:50:15;8.95;;;1.90;;
59338;SDS011;45117;50.960;5.500;2023-09-19T04:52:42;8.68;;;1.80;;
59338;SDS011;45117;50.960;5.500;2023-09-19T04:55:12;6.93;;;1.85;;
59338;SDS011;45117;50.960;5.500;2023-09-19T04:57:41;9.02;;;1.92;;
59338;SDS011;45117;50.960;5.500;2023-09-19T05:00:10;11.45;;;2.08;;
59338;SDS011;45117;50.960;5.500;2023-09-19T05:02:38;10.88;;;1.98;;
59338;SDS011;45117;50.960;5.500;2023-09-19T05:05:06;10.55;;;2.30;;
59338;SDS011;45117;50.960;5.500;2023-09-19T05:07:33;12.40;;;2.50;;
59338;SDS011;45117;50.960;5.500;2023-09-19T05:10:00;9.00;;;2.10;;
59338;SDS011;45117;50.960;5.500;2023-09-19T05:12:31;9.07;;;1.75;;
59338;SDS011;45117;50.960;5.500;2023-09-19T05:14:59;13.85;;;1.90;;
59338;SDS011;45117;50.960;5.500;2023-09-19T05:17:26;12.30;;;1.95;;
59338;SDS011;45117;50.960;5.500;2023-09-19T05:19:53;9.95;;;1.67;;
59338;SDS011;45117;50.960;5.500;2023-09-19T05:22:19;9.90;;;2.00;;
59338;SDS011;45117;50.960;5.500;2023-09-19T05:24:46;11.48;;;2.08;;
59338;SDS011;45117;50.960;5.500;2023-09-19T05:27:13;10.45;;;2.20;;
59338;SDS011;45117;50.960;5.500;2023-09-19T05:29:43;9.07;;;2.15;;
59338;SDS011;45117;50.960;5.500;2023-09-19T05:32:10;10.65;;;1.80;;
59338;SDS011;45117;50.960;5.500;2023-09-19T05:34:37;9.50;;;1.90;;
59338;SDS011;45117;50.960;5.500;2023-09-19T05:37:06;9.93;;;1.75;;
59338;SDS011;45117;50.960;5.500;2023-09-19T05:39:35;12.05;;;1.80;;
59338;SDS011;45117;50.960;5.500;2023-09-19T05:42:02;12.52;;;1.75;;
59338;SDS011;45117;50.960;5.500;2023-09-19T05:44:29;8.02;;;1.65;;
59338;SDS011;45117;50.960;5.500;2023-09-19T05:47:01;12.35;;;1.90;;
59338;SDS011;45117;50.960;5.500;2023-09-19T05:49:34;10.55;;;1.60;;
59338;SDS011;45117;50.960;5.500;2023-09-19T05:52:03;9.40;;;2.20;;
59338;SDS011;45117;50.960;5.500;2023-09-19T05:54:30;9.05;;;1.75;;
59338;SDS011;45117;50.960;5.500;2023-09-19T05:56:58;14.73;;;2.20;;
59338;SDS011;45117;50.960;5.500;2023-09-19T05:59:24;7.68;;;2.00;;
59338;SDS011;45117;50.960;5.500;2023-09-19T06:01:51;7.97;;;1.42;;
59338;SDS011;45117;50.960;5.500;2023-09-19T06:04:19;13.70;;;2.00;;
59338;SDS011;45117;50.960;5.500;2023-09-19T06:06:46;9.55;;;1.77;;
59338;SDS011;45117;50.960;5.500;2023-09-19T06:09:13;10.55;;;1.73;;
59338;SDS011;45117;50.960;5.500;2023-09-19T06:11:41;7.20;;;2.03;;
59338;SDS011;45117;50.960;5.500;2023-09-19T06:14:07;13.90;;;2.15;;
59338;SDS011;45117;50.960;5.500;2023-09-19T06:16:35;9.82;;;1.63;;
59338;SDS011;45117;50.960;5.500;2023-09-19T06:19:03;12.05;;;1.98;;
59338;SDS011;45117;50.960;5.500;2023-09-19T06:21:33;11.35;;;2.25;;
59338;SDS011;45117;50.960;5.500;2023-09-19T06:23:59;10.18;;;1.88;;
59338;SDS011;45117;50.960;5.500;2023-09-19T06:26:26;7.05;;;1.65;;
59338;SDS011;45117;50.960;5.500;2023-09-19T06:28:53;10.68;;;1.90;;
59338;SDS011;45117;50.960;5.500;2023-09-19T06:31:20;10.15;;;1.67;;
59338;SDS011;45117;50.960;5.500;2023-09-19T06:33:48;7.68;;;1.80;;
59338;SDS011;45117;50.960;5.500;2023-09-19T06:36:15;10.10;;;1.77;;
59338;SDS011;45117;50.960;5.500;2023-09-19T06:38:43;11.13;;;1.83;;
59338;SDS011;45117;50.960;5.500;2023-09-19T06:41:09;5.50;;;1.52;;
59338;SDS011;45117;50.960;5.500;2023-09-19T06:43:42;7.90;;;1.60;;
59338;SDS011;45117;50.960;5.500;2023-09-19T06:46:09;8.95;;;1.75;;
59338;SDS011;45117;50.960;5.500;2023-09-19T06:48:37;9.88;;;1.77;;
59338;SDS011;45117;50.960;5.500;2023-09-19T06:51:04;11.40;;;1.90;;
59338;SDS011;45117;50.960;5.500;2023-09-19T06:53:31;7.88;;;2.03;;
59338;SDS011;45117;50.960;5.500;2023-09-19T06:56:01;6.63;;;1.50;;
59338;SDS011;45117;50.960;5.500;2023-09-19T06:58:31;8.25;;;1.70;;
59338;SDS011;45117;50.960;5.500;2023-09-19T07:00:58;7.10;;;1.25;;
59338;SDS011;45117;50.960;5.500;2023-09-19T07:03:24;9.88;;;2.05;;
59338;SDS011;45117;50.960;5.500;2023-09-19T07:05:53;9.25;;;1.77;;
59338;SDS011;45117;50.960;5.500;2023-09-19T07:08:21;10.80;;;1.85;;
59338;SDS011;45117;50.960;5.500;2023-09-19T07:10:47;9.55;;;1.63;;
59338;SDS011;45117;50.960;5.500;2023-09-19T07:13:15;9.07;;;1.65;;
59338;SDS011;45117;50.960;5.500;2023-09-19T07:15:43;10.35;;;1.85;;
59338;SDS011;45117;50.960;5.500;2023-09-19T07:18:12;9.50;;;1.70;;
59338;SDS011;45117;50.960;5.500;2023-09-19T07:20:40;8.13;;;1.60;;
59338;SDS011;45117;50.960;5.500;2023-09-19T07:23:10;8.27;;;1.70;;
59338;SDS011;45117;50.960;5.500;2023-09-19T07:25:39;8.73;;;1.73;;
59338;SDS011;45117;50.960;5.500;2023-09-19T07:28:06;7.65;;;1.70;;
59338;SDS011;45117;50.960;5.500;2023-09-19T07:30:35;8.55;;;1.52;;
59338;SDS011;45117;50.960;5.500;2023-09-19T07:33:03;12.27;;;1.77;;
59338;SDS011;45117;50.960;5.500;2023-09-19T07:35:30;6.68;;;1.50;;
59338;SDS011;45117;50.960;5.500;2023-09-19T07:37:57;7.75;;;1.67;;
59338;SDS011;45117;50.960;5.500;2023-09-19T07:40:26;11.10;;;1.67;;
59338;SDS011;45117;50.960;5.500;2023-09-19T07:42:54;8.50;;;1.67;;
59338;SDS011;45117;50.960;5.500;2023-09-19T07:45:21;8.43;;;1.70;;
59338;SDS011;45117;50.960;5.500;2023-09-19T07:47:49;8.40;;;1.88;;
59338;SDS011;45117;50.960;5.500;2023-09-19T07:50:16;5.97;;;1.35;;
59338;SDS011;45117;50.960;5.500;2023-09-19T07:52:44;7.72;;;1.60;;
59338;SDS011;45117;50.960;5.500;2023-09-19T07:55:11;9.75;;;1.50;;
59338;SDS011;45117;50.960;5.500;2023-09-19T07:57:41;6.50;;;1.60;;
59338;SDS011;45117;50.960;5.500;2023-09-19T08:00:09;6.43;;;1.50;;
59338;SDS011;45117;50.960;5.500;2023-09-19T08:02:36;8.35;;;1.83;;
59338;SDS011;45117;50.960;5.500;2023-09-19T08:05:05;9.50;;;1.90;;
59338;SDS011;45117;50.960;5.500;2023-09-19T08:07:34;10.20;;;1.55;;
59338;SDS011;45117;50.960;5.500;2023-09-19T08:10:01;8.52;;;1.85;;
59338;SDS011;45117;50.960;5.500;2023-09-19T08:12:28;8.15;;;1.80;;
59338;SDS011;45117;50.960;5.500;2023-09-19T08:14:56;6.60;;;1.67;;
59338;SDS011;45117;50.960;5.500;2023-09-19T08:17:23;7.57;;;1.45;;
59338;SDS011;45117;50.960;5.500;2023-09-19T08:19:49;8.48;;;2.38;;
59338;SDS011;45117;50.960;5.500;2023-09-19T08:22:19;6.45;;;1.55;;
59338;SDS011;45117;50.960;5.500;2023-09-19T08:24:46;5.93;;;1.65;;
59338;SDS011;45117;50.960;5.500;2023-09-19T08:27:13;10.65;;;2.00;;
59338;SDS011;45117;50.960;5.500;2023-09-19T08:29:40;7.28;;;1.60;;
59338;SDS011;45117;50.960;5.500;2023-09-19T08:32:07;9.82;;;1.65;;
59338;SDS011;45117;50.960;5.500;2023-09-19T08:34:34;6.60;;;1.70;;
59338;SDS011;45117;50.960;5.500;2023-09-19T08:37:03;4.43;;;1.27;;
59338;SDS011;45117;50.960;5.500;2023-09-19T08:39:31;6.68;;;1.20;;
59338;SDS011;45117;50.960;5.500;2023-09-19T08:42:00;6.68;;;1.50;;
59338;SDS011;45117;50.960;5.500;2023-09-19T08:44:28;7.43;;;1.70;;
59338;SDS011;45117;50.960;5.500;2023-09-19T08:46:55;8.00;;;1.70;;
59338;SDS011;45117;50.960;5.500;2023-09-19T08:49:32;6.55;;;1.35;;
59338;SDS011;45117;50.960;5.500;2023-09-19T08:52:05;5.70;;;1.40;;
59338;SDS011;45117;50.960;5.500;2023-09-19T08:54:38;9.25;;;1.58;;
59338;SDS011;45117;50.960;5.500;2023-09-19T08:57:08;8.23;;;1.70;;
59338;SDS011;45117;50.960;5.500;2023-09-19T08:59:37;10.35;;;1.60;;
59338;SDS011;45117;50.960;5.500;2023-09-19T09:02:08;7.90;;;1.55;;
59338;SDS011;45117;50.960;5.500;2023-09-19T09:04:38;11.70;;;1.98;;
59338;SDS011;45117;50.960;5.500;2023-09-19T09:07:06;11.32;;;1.55;;
59338;SDS011;45117;50.960;5.500;2023-09-19T09:09:38;8.25;;;1.52;;
59338;SDS011;45117;50.960;5.500;2023-09-19T09:12:07;11.32;;;1.90;;
59338;SDS011;45117;50.960;5.500;2023-09-19T09:14:37;8.48;;;1.55;;
59338;SDS011;45117;50.960;5.500;2023-09-19T09:17:04;7.45;;;1.45;;
59338;SDS011;45117;50.960;5.500;2023-09-19T09:19:30;9.77;;;1.80;;
59338;SDS011;45117;50.960;5.500;2023-09-19T09:22:07;7.30;;;1.77;;
59338;SDS011;45117;50.960;5.500;2023-09-19T09:24:35;8.90;;;1.75;;
59338;SDS011;45117;50.960;5.500;2023-09-19T09:27:05;8.90;;;1.45;;
59338;SDS011;45117;50.960;5.500;2023-09-19T09:29:40;7.25;;;1.77;;
59338;SDS011;45117;50.960;5.500;2023-09-19T09:32:21;8.30;;;1.55;;
59338;SDS011;45117;50.960;5.500;2023-09-19T09:34:51;7.22;;;1.60;;
59338;SDS011;45117;50.960;5.500;2023-09-19T09:37:19;8.68;;;1.65;;
59338;SDS011;45117;50.960;5.500;2023-09-19T09:39:50;7.18;;;1.60;;
59338;SDS011;45117;50.960;5.500;2023-09-19T09:42:30;6.25;;;1.80;;
59338;SDS011;45117;50.960;5.500;2023-09-19T09:45:12;8.77;;;1.80;;
59338;SDS011;45117;50.960;5.500;2023-09-19T09:47:43;5.25;;;1.50;;
59338;SDS011;45117;50.960;5.500;2023-09-19T09:50:26;8.23;;;1.52;;
59338;SDS011;45117;50.960;5.500;2023-09-19T09:53:02;7.82;;;1.52;;
59338;SDS011;45117;50.960;5.500;2023-09-19T09:55:56;5.88;;;1.50;;
59338;SDS011;45117;50.960;5.500;2023-09-19T09:58:26;6.20;;;1.63;;
59338;SDS011;45117;50.960;5.500;2023-09-19T10:00:55;8.60;;;1.40;;
59338;SDS011;45117;50.960;5.500;2023-09-19T10:03:30;6.72;;;1.50;;
59338;SDS011;45117;50.960;5.500;2023-09-19T10:05:59;6.78;;;1.50;;
59338;SDS011;45117;50.960;5.500;2023-09-19T10:08:34;5.35;;;1.48;;
59338;SDS011;45117;50.960;5.500;2023-09-19T10:11:01;9.00;;;2.00;;
59338;SDS011;45117;50.960;5.500;2023-09-19T10:13:43;8.18;;;1.67;;
59338;SDS011;45117;50.960;5.500;2023-09-19T10:16:12;7.70;;;1.98;;
59338;SDS011;45117;50.960;5.500;2023-09-19T10:18:40;6.00;;;1.35;;
59338;SDS011;45117;50.960;5.500;2023-09-19T10:21:09;6.13;;;1.60;;
59338;SDS011;45117;50.960;5.500;2023-09-19T10:23:36;7.13;;;1.73;;
59338;SDS011;45117;50.960;5.500;2023-09-19T10:26:04;8.10;;;1.55;;
59338;SDS011;45117;50.960;5.500;2023-09-19T10:28:34;7.68;;;1.75;;
59338;SDS011;45117;50.960;5.500;2023-09-19T10:31:04;6.55;;;1.58;;
59338;SDS011;45117;50.960;5.500;2023-09-19T10:33:35;7.20;;;1.58;;
59338;SDS011;45117;50.960;5.500;2023-09-19T10:36:03;5.95;;;1.35;;
59338;SDS011;45117;50.960;5.500;2023-09-19T10:38:31;8.02;;;1.60;;
59338;SDS011;45117;50.960;5.500;2023-09-19T10:41:01;7.15;;;1.33;;
59338;SDS011;45117;50.960;5.500;2023-09-19T10:43:29;7.00;;;1.70;;
59338;SDS011;45117;50.960;5.500;2023-09-19T10:46:00;5.40;;;1.42;;
59338;SDS011;45117;50.960;5.500;2023-09-19T10:48:30;6.93;;;1.30;;
59338;SDS011;45117;50.960;5.500;2023-09-19T10:50:58;9.57;;;1.90;;
59338;SDS011;45117;50.960;5.500;2023-09-19T10:53:39;6.95;;;1.75;;
59338;SDS011;45117;50.960;5.500;2023-09-19T10:56:09;8.27;;;1.70;;
59338;SDS011;45117;50.960;5.500;2023-09-19T10:58:42;7.55;;;1.60;;
59338;SDS011;45117;50.960;5.500;2023-09-19T11:01:09;9.07;;;1.65;;
59338;SDS011;45117;50.960;5.500;2023-09-19T11:03:41;4.75;;;1.48;;
59338;SDS011;45117;50.960;5.500;2023-09-19T11:06:10;5.82;;;1.60;;
59338;SDS011;45117;50.960;5.500;2023-09-19T11:08:58;4.78;;;1.25;;
59338;SDS011;45117;50.960;5.500;2023-09-19T11:11:48;5.60;;;1.63;;
59338;SDS011;45117;50.960;5.500;2023-09-19T11:14:29;8.05;;;1.70;;
59338;SDS011;45117;50.960;5.500;2023-09-19T11:20:17;4.82;;;1.20;;
59338;SDS011;45117;50.960;5.500;2023-09-19T11:25:49;4.70;;;1.23;;
59338;SDS011;45117;50.960;5.500;2023-09-19T11:28:27;5.28;;;1.00;;
59338;SDS011;45117;50.960;5.500;2023-09-19T11:30:57;5.95;;;1.23;;
59338;SDS011;45117;50.960;5.500;2023-09-19T11:33:24;3.55;;;1.00;;
59338;SDS011;45117;50.960;5.500;2023-09-19T11:36:04;6.53;;;1.27;;
59338;SDS011;45117;50.960;5.500;2023-09-19T11:41:36;4.50;;;1.13;;
59338;SDS011;45117;50.960;5.500;2023-09-19T11:47:03;5.65;;;1.10;;
59338;SDS011;45117;50.960;5.500;2023-09-19T11:49:32;7.18;;;1.10;;
59338;SDS011;45117;50.960;5.500;2023-09-19T11:52:04;3.65;;;1.00;;
59338;SDS011;45117;50.960;5.500;2023-09-19T11:54:33;3.95;;;0.85;;
59338;SDS011;45117;50.960;5.500;2023-09-19T11:57:05;6.25;;;1.15;;
59338;SDS011;45117;50.960;5.500;2023-09-19T11:59:32;4.43;;;1.38;;
59338;SDS011;45117;50.960;5.500;2023-09-19T12:02:00;3.92;;;0.95;;
59338;SDS011;45117;50.960;5.500;2023-09-19T12:04:33;5.93;;;1.10;;
59338;SDS011;45117;50.960;5.500;2023-09-19T12:07:04;3.63;;;0.90;;
59338;SDS011;45117;50.960;5.500;2023-09-19T12:09:38;3.33;;;0.80;;
59338;SDS011;45117;50.960;5.500;2023-09-19T12:12:06;5.47;;;0.98;;
59338;SDS011;45117;50.960;5.500;2023-09-19T12:14:34;4.00;;;0.70;;
59338;SDS011;45117;50.960;5.500;2023-09-19T12:17:01;3.50;;;0.75;;
59338;SDS011;45117;50.960;5.500;2023-09-19T12:19:28;5.35;;;0.80;;
59338;SDS011;45117;50.960;5.500;2023-09-19T12:21:58;1.98;;;0.68;;
59338;SDS011;45117;50.960;5.500;2023-09-19T12:27:19;3.42;;;0.80;;
59338;SDS011;45117;50.960;5.500;2023-09-19T12:29:48;3.50;;;0.90;;
59338;SDS011;45117;50.960;5.500;2023-09-19T12:32:19;4.53;;;0.75;;
59338;SDS011;45117;50.960;5.500;2023-09-19T12:35:00;3.95;;;0.80;;
59338;SDS011;45117;50.960;5.500;2023-09-19T12:37:32;3.40;;;0.52;;
59338;SDS011;45117;50.960;5.500;2023-09-19T12:40:06;3.00;;;0.70;;
59338;SDS011;45117;50.960;5.500;2023-09-19T12:42:42;3.05;;;0.70;;
59338;SDS011;45117;50.960;5.500;2023-09-19T12:45:10;5.13;;;0.80;;
59338;SDS011;45117;50.960;5.500;2023-09-19T12:47:41;3.17;;;0.50;;
59338;SDS011;45117;50.960;5.500;2023-09-19T12:53:56;2.92;;;0.50;;
59338;SDS011;45117;50.960;5.500;2023-09-19T12:56:42;2.00;;;0.60;;
59338;SDS011;45117;50.960;5.500;2023-09-19T12:59:12;2.78;;;0.70;;
59338;SDS011;45117;50.960;5.500;2023-09-19T13:01:42;2.58;;;0.52;;
59338;SDS011;45117;50.960;5.500;2023-09-19T13:04:12;1.80;;;0.52;;
59338;SDS011;45117;50.960;5.500;2023-09-19T13:06:43;7.07;;;0.80;;
59338;SDS011;45117;50.960;5.500;2023-09-19T13:09:11;4.03;;;0.73;;
59338;SDS011;45117;50.960;5.500;2023-09-19T13:11:39;2.55;;;0.40;;
59338;SDS011;45117;50.960;5.500;2023-09-19T13:14:27;2.50;;;0.52;;
59338;SDS011;45117;50.960;5.500;2023-09-19T13:16:57;2.70;;;0.63;;
59338;SDS011;45117;50.960;5.500;2023-09-19T13:19:34;2.58;;;0.50;;
59338;SDS011;45117;50.960;5.500;2023-09-19T13:22:11;2.25;;;0.60;;
59338;SDS011;45117;50.960;5.500;2023-09-19T13:25:05;6.03;;;0.63;;
59338;SDS011;45117;50.960;5.500;2023-09-19T13:27:33;3.08;;;0.52;;
59338;SDS011;45117;50.960;5.500;2023-09-19T13:30:08;2.90;;;0.60;;
59338;SDS011;45117;50.960;5.500;2023-09-19T13:33:20;2.53;;;0.93;;
59338;SDS011;45117;50.960;5.500;2023-09-19T13:35:46;3.30;;;0.60;;
59338;SDS011;45117;50.960;5.500;2023-09-19T13:38:14;2.80;;;0.60;;
59338;SDS011;45117;50.960;5.500;2023-09-19T13:40:47;2.63;;;0.73;;
59338;SDS011;45117;50.960;5.500;2023-09-19T13:43:14;4.30;;;0.80;;
59338;SDS011;45117;50.960;5.500;2023-09-19T13:45:45;4.03;;;0.70;;
59338;SDS011;45117;50.960;5.500;2023-09-19T13:48:12;3.63;;;0.82;;
59338;SDS011;45117;50.960;5.500;2023-09-19T13:50:38;3.50;;;1.00;;
59338;SDS011;45117;50.960;5.500;2023-09-19T13:53:07;3.00;;;0.80;;
59338;SDS011;45117;50.960;5.500;2023-09-19T13:55:34;2.38;;;0.82;;
59338;SDS011;45117;50.960;5.500;2023-09-19T13:58:00;3.72;;;0.90;;
59338;SDS011;45117;50.960;5.500;2023-09-19T14:00:27;4.10;;;0.90;;
59338;SDS011;45117;50.960;5.500;2023-09-19T14:02:55;2.88;;;0.90;;
59338;SDS011;45117;50.960;5.500;2023-09-19T14:05:21;3.50;;;0.80;;
59338;SDS011;45117;50.960;5.500;2023-09-19T14:07:52;2.55;;;0.60;;
59338;SDS011;45117;50.960;5.500;2023-09-19T14:10:21;2.95;;;0.90;;
59338;SDS011;45117;50.960;5.500;2023-09-19T14:12:47;5.80;;;0.95;;
59338;SDS011;45117;50.960;5.500;2023-09-19T14:15:14;4.60;;;1.10;;
59338;SDS011;45117;50.960;5.500;2023-09-19T14:17:41;4.95;;;1.00;;
59338;SDS011;45117;50.960;5.500;2023-09-19T14:20:11;5.13;;;0.95;;
59338;SDS011;45117;50.960;5.500;2023-09-19T14:22:37;2.80;;;0.88;;
59338;SDS011;45117;50.960;5.500;2023-09-19T14:25:04;5.10;;;0.70;;
59338;SDS011;45117;50.960;5.500;2023-09-19T14:27:31;3.25;;;0.70;;
59338;SDS011;45117;50.960;5.500;2023-09-19T14:29:58;4.10;;;0.80;;
59338;SDS011;45117;50.960;5.500;2023-09-19T14:32:25;3.80;;;0.70;;
59338;SDS011;45117;50.960;5.500;2023-09-19T14:34:52;4.00;;;0.80;;
59338;SDS011;45117;50.960;5.500;2023-09-19T14:37:20;5.88;;;0.85;;
59338;SDS011;45117;50.960;5.500;2023-09-19T14:39:50;4.07;;;0.82;;
59338;SDS011;45117;50.960;5.500;2023-09-19T14:42:17;6.00;;;1.02;;
59338;SDS011;45117;50.960;5.500;2023-09-19T14:44:43;4.72;;;0.70;;
59338;SDS011;45117;50.960;5.500;2023-09-19T14:47:12;2.97;;;0.73;;
59338;SDS011;45117;50.960;5.500;2023-09-19T14:49:39;2.78;;;0.80;;
59338;SDS011;45117;50.960;5.500;2023-09-19T14:52:07;3.72;;;0.90;;
59338;SDS011;45117;50.960;5.500;2023-09-19T14:54:35;3.53;;;0.70;;
59338;SDS011;45117;50.960;5.500;2023-09-19T14:57:07;3.88;;;1.00;;
59338;SDS011;45117;50.960;5.500;2023-09-19T14:59:35;3.47;;;0.73;;
59338;SDS011;45117;50.960;5.500;2023-09-19T15:02:03;4.30;;;0.68;;
59338;SDS011;45117;50.960;5.500;2023-09-19T15:04:41;2.53;;;0.50;;
59338;SDS011;45117;50.960;5.500;2023-09-19T15:07:48;3.13;;;0.80;;
59338;SDS011;45117;50.960;5.500;2023-09-19T15:10:19;3.80;;;0.80;;
59338;SDS011;45117;50.960;5.500;2023-09-19T15:12:47;4.07;;;0.90;;
59338;SDS011;45117;50.960;5.500;2023-09-19T15:15:14;5.05;;;0.95;;
59338;SDS011;45117;50.960;5.500;2023-09-19T15:17:40;4.97;;;0.90;;
59338;SDS011;45117;50.960;5.500;2023-09-19T15:20:09;5.95;;;0.90;;